sensor_id;sensor_type;location;lat;lon;timestamp;P1;durP1;ratioP1;P2;durP2;ratioP2
4909;SDS011;2470;49.868;8.660;2022-11-18T00:00:49;3.13;;;1.93;;
4909;SDS011;2470;49.868;8.660;2022-11-18T00:03:15;2.80;;;2.00;;
4909;SDS011;2470;49.868;8.660;2022-11-18T00:05:41;3.33;;;2.43;;
4909;SDS011;2470;49.868;8.660;2022-11-18T00:08:06;3.00;;;2.20;;
4909;SDS011;2470;49.868;8.660;2022-11-18T00:10:32;3.27;;;2.10;;
4909;SDS011;2470;49.868;8.660;2022-11-18T00:13:00;3.00;;;2.30;;
4909;SDS011;2470;49.868;8.660;2022-11-18T00:15:44;4.80;;;3.17;;
4909;SDS011;2470;49.868;8.660;2022-11-18T00:18:10;4.10;;;2.50;;
4909;SDS011;2470;49.868;8.660;2022-11-18T00:20:35;2.90;;;2.27;;
4909;SDS011;2470;49.868;8.660;2022-11-18T00:23:01;4.17;;;2.67;;
4909;SDS011;2470;49.868;8.660;2022-11-18T00:25:26;5.63;;;2.77;;
4909;SDS011;2470;49.868;8.660;2022-11-18T00:27:52;4.57;;;2.40;;
4909;SDS011;2470;49.868;8.660;2022-11-18T00:30:18;4.57;;;2.43;;
4909;SDS011;2470;49.868;8.660;2022-11-18T00:32:44;2.90;;;2.37;;
4909;SDS011;2470;49.868;8.660;2022-11-18T00:35:09;6.70;;;3.23;;
4909;SDS011;2470;49.868;8.660;2022-11-18T00:37:35;6.77;;;3.23;;
4909;SDS011;2470;49.868;8.660;2022-11-18T00:40:01;4.07;;;3.00;;
4909;SDS011;2470;49.868;8.660;2022-11-18T00:42:26;3.23;;;2.93;;
4909;SDS011;2470;49.868;8.660;2022-11-18T00:45:10;3.60;;;3.07;;
4909;SDS011;2470;49.868;8.660;2022-11-18T00:47:36;5.20;;;3.30;;
4909;SDS011;2470;49.868;8.660;2022-11-18T00:50:01;4.90;;;3.60;;
4909;SDS011;2470;49.868;8.660;2022-11-18T00:52:27;3.47;;;2.40;;
4909;SDS011;2470;49.868;8.660;2022-11-18T00:54:52;6.80;;;3.30;;
4909;SDS011;2470;49.868;8.660;2022-11-18T00:57:18;4.50;;;2.80;;
4909;SDS011;2470;49.868;8.660;2022-11-18T00:59:43;7.53;;;3.40;;
4909;SDS011;2470;49.868;8.660;2022-11-18T01:02:09;10.30;;;3.50;;
4909;SDS011;2470;49.868;8.660;2022-11-18T01:04:35;5.23;;;3.77;;
4909;SDS011;2470;49.868;8.660;2022-11-18T01:07:00;4.10;;;3.20;;
4909;SDS011;2470;49.868;8.660;2022-11-18T01:09:25;6.03;;;3.10;;
4909;SDS011;2470;49.868;8.660;2022-11-18T01:11:51;5.60;;;2.70;;
4909;SDS011;2470;49.868;8.660;2022-11-18T01:14:36;3.13;;;2.73;;
4909;SDS011;2470;49.868;8.660;2022-11-18T01:17:01;3.57;;;2.53;;
4909;SDS011;2470;49.868;8.660;2022-11-18T01:19:27;3.83;;;3.20;;
4909;SDS011;2470;49.868;8.660;2022-11-18T01:21:53;4.80;;;2.80;;
4909;SDS011;2470;49.868;8.660;2022-11-18T01:24:20;4.20;;;3.07;;
4909;SDS011;2470;49.868;8.660;2022-11-18T01:26:46;3.00;;;2.67;;
4909;SDS011;2470;49.868;8.660;2022-11-18T01:29:12;9.93;;;3.60;;
4909;SDS011;2470;49.868;8.660;2022-11-18T01:31:38;5.67;;;3.27;;
4909;SDS011;2470;49.868;8.660;2022-11-18T01:34:03;2.97;;;2.53;;
4909;SDS011;2470;49.868;8.660;2022-11-18T01:36:29;6.03;;;2.97;;
4909;SDS011;2470;49.868;8.660;2022-11-18T01:38:55;3.83;;;2.70;;
4909;SDS011;2470;49.868;8.660;2022-11-18T01:41:22;4.23;;;2.97;;
4909;SDS011;2470;49.868;8.660;2022-11-18T01:43:51;5.30;;;3.20;;
4909;SDS011;2470;49.868;8.660;2022-11-18T01:46:20;3.07;;;2.77;;
4909;SDS011;2470;49.868;8.660;2022-11-18T01:48:49;5.20;;;3.70;;
4909;SDS011;2470;49.868;8.660;2022-11-18T01:51:38;5.67;;;3.03;;
4909;SDS011;2470;49.868;8.660;2022-11-18T01:54:12;4.70;;;4.10;;
4909;SDS011;2470;49.868;8.660;2022-11-18T01:56:45;8.73;;;3.90;;
4909;SDS011;2470;49.868;8.660;2022-11-18T01:59:15;2.47;;;2.27;;
4909;SDS011;2470;49.868;8.660;2022-11-18T02:01:44;9.17;;;3.67;;
4909;SDS011;2470;49.868;8.660;2022-11-18T02:04:10;4.13;;;2.20;;
4909;SDS011;2470;49.868;8.660;2022-11-18T02:06:37;4.37;;;3.13;;
4909;SDS011;2470;49.868;8.660;2022-11-18T02:09:04;5.77;;;2.77;;
4909;SDS011;2470;49.868;8.660;2022-11-18T02:11:29;3.63;;;2.40;;
4909;SDS011;2470;49.868;8.660;2022-11-18T02:14:14;6.73;;;3.37;;
4909;SDS011;2470;49.868;8.660;2022-11-18T02:22:34;6.17;;;3.00;;
4909;SDS011;2470;49.868;8.660;2022-11-18T02:28:04;5.50;;;2.57;;
4909;SDS011;2470;49.868;8.660;2022-11-18T02:30:55;4.10;;;2.73;;
4909;SDS011;2470;49.868;8.660;2022-11-18T02:33:39;3.87;;;2.87;;
4909;SDS011;2470;49.868;8.660;2022-11-18T02:36:15;10.60;;;2.60;;
4909;SDS011;2470;49.868;8.660;2022-11-18T02:38:45;3.10;;;2.40;;
4909;SDS011;2470;49.868;8.660;2022-11-18T02:41:17;3.77;;;2.60;;
4909;SDS011;2470;49.868;8.660;2022-11-18T02:44:29;3.07;;;2.77;;
4909;SDS011;2470;49.868;8.660;2022-11-18T02:46:38;3.13;;;2.23;;
4909;SDS011;2470;49.868;8.660;2022-11-18T02:49:11;2.80;;;2.40;;
4909;SDS011;2470;49.868;8.660;2022-11-18T02:51:42;6.00;;;3.20;;
4909;SDS011;2470;49.868;8.660;2022-11-18T02:54:11;5.80;;;3.60;;
4909;SDS011;2470;49.868;8.660;2022-11-18T02:56:39;3.93;;;2.57;;
4909;SDS011;2470;49.868;8.660;2022-11-18T02:59:06;6.17;;;2.70;;
4909;SDS011;2470;49.868;8.660;2022-11-18T03:01:32;9.87;;;4.03;;
4909;SDS011;2470;49.868;8.660;2022-11-18T03:03:59;2.60;;;2.20;;
4909;SDS011;2470;49.868;8.660;2022-11-18T03:06:35;3.20;;;2.70;;
4909;SDS011;2470;49.868;8.660;2022-11-18T03:09:12;3.73;;;2.37;;
4909;SDS011;2470;49.868;8.660;2022-11-18T03:14:50;3.90;;;3.20;;
4909;SDS011;2470;49.868;8.660;2022-11-18T03:17:42;9.00;;;3.20;;
4909;SDS011;2470;49.868;8.660;2022-11-18T03:20:26;3.33;;;2.63;;
4909;SDS011;2470;49.868;8.660;2022-11-18T03:22:56;4.30;;;3.13;;
4909;SDS011;2470;49.868;8.660;2022-11-18T03:27:59;4.07;;;2.53;;
4909;SDS011;2470;49.868;8.660;2022-11-18T03:30:27;7.00;;;3.30;;
4909;SDS011;2470;49.868;8.660;2022-11-18T03:33:02;5.57;;;3.93;;
4909;SDS011;2470;49.868;8.660;2022-11-18T03:35:34;7.30;;;4.13;;
4909;SDS011;2470;49.868;8.660;2022-11-18T03:38:13;4.67;;;3.07;;
4909;SDS011;2470;49.868;8.660;2022-11-18T03:40:44;5.80;;;3.83;;
4909;SDS011;2470;49.868;8.660;2022-11-18T03:43:15;3.87;;;3.30;;
4909;SDS011;2470;49.868;8.660;2022-11-18T03:45:53;7.60;;;4.20;;
4909;SDS011;2470;49.868;8.660;2022-11-18T03:48:28;7.23;;;3.43;;
4909;SDS011;2470;49.868;8.660;2022-11-18T03:51:01;3.93;;;3.10;;
4909;SDS011;2470;49.868;8.660;2022-11-18T03:53:32;5.93;;;4.10;;
4909;SDS011;2470;49.868;8.660;2022-11-18T03:56:03;6.27;;;3.33;;
4909;SDS011;2470;49.868;8.660;2022-11-18T03:58:35;8.27;;;3.40;;
4909;SDS011;2470;49.868;8.660;2022-11-18T04:01:07;6.57;;;4.30;;
4909;SDS011;2470;49.868;8.660;2022-11-18T04:03:38;5.37;;;3.50;;
4909;SDS011;2470;49.868;8.660;2022-11-18T04:06:14;7.37;;;3.90;;
4909;SDS011;2470;49.868;8.660;2022-11-18T04:09:02;8.13;;;3.33;;
4909;SDS011;2470;49.868;8.660;2022-11-18T04:11:46;11.00;;;4.00;;
4909;SDS011;2470;49.868;8.660;2022-11-18T04:14:32;7.07;;;4.20;;
4909;SDS011;2470;49.868;8.660;2022-11-18T04:17:04;7.80;;;4.30;;
4909;SDS011;2470;49.868;8.660;2022-11-18T04:19:37;6.20;;;3.67;;
4909;SDS011;2470;49.868;8.660;2022-11-18T04:22:04;14.27;;;4.67;;
4909;SDS011;2470;49.868;8.660;2022-11-18T04:24:32;6.03;;;3.67;;
4909;SDS011;2470;49.868;8.660;2022-11-18T04:26:58;9.90;;;5.53;;
4909;SDS011;2470;49.868;8.660;2022-11-18T04:29:24;6.10;;;3.97;;
4909;SDS011;2470;49.868;8.660;2022-11-18T04:31:50;10.47;;;4.83;;
4909;SDS011;2470;49.868;8.660;2022-11-18T04:34:15;6.43;;;4.90;;
4909;SDS011;2470;49.868;8.660;2022-11-18T04:36:41;6.13;;;3.50;;
4909;SDS011;2470;49.868;8.660;2022-11-18T04:39:06;9.03;;;4.50;;
4909;SDS011;2470;49.868;8.660;2022-11-18T04:41:32;5.80;;;4.13;;
4909;SDS011;2470;49.868;8.660;2022-11-18T04:44:16;5.57;;;3.37;;
4909;SDS011;2470;49.868;8.660;2022-11-18T04:46:42;6.60;;;4.40;;
4909;SDS011;2470;49.868;8.660;2022-11-18T04:49:09;9.10;;;4.70;;
4909;SDS011;2470;49.868;8.660;2022-11-18T04:51:36;11.50;;;4.57;;
4909;SDS011;2470;49.868;8.660;2022-11-18T04:54:02;9.40;;;5.40;;
4909;SDS011;2470;49.868;8.660;2022-11-18T04:56:28;5.80;;;4.30;;
4909;SDS011;2470;49.868;8.660;2022-11-18T04:58:54;8.90;;;4.10;;
4909;SDS011;2470;49.868;8.660;2022-11-18T05:01:20;16.20;;;5.83;;
4909;SDS011;2470;49.868;8.660;2022-11-18T05:03:45;6.73;;;4.97;;
4909;SDS011;2470;49.868;8.660;2022-11-18T05:06:11;7.53;;;3.67;;
4909;SDS011;2470;49.868;8.660;2022-11-18T05:08:37;9.27;;;4.17;;
4909;SDS011;2470;49.868;8.660;2022-11-18T05:11:06;7.83;;;4.30;;
4909;SDS011;2470;49.868;8.660;2022-11-18T05:13:51;11.13;;;5.03;;
4909;SDS011;2470;49.868;8.660;2022-11-18T05:16:16;9.90;;;5.97;;
4909;SDS011;2470;49.868;8.660;2022-11-18T05:18:42;9.63;;;5.40;;
4909;SDS011;2470;49.868;8.660;2022-11-18T05:21:08;15.80;;;6.00;;
4909;SDS011;2470;49.868;8.660;2022-11-18T05:23:33;7.97;;;4.70;;
4909;SDS011;2470;49.868;8.660;2022-11-18T05:26:02;14.63;;;6.77;;
4909;SDS011;2470;49.868;8.660;2022-11-18T05:28:28;11.00;;;5.27;;
4909;SDS011;2470;49.868;8.660;2022-11-18T05:30:54;9.00;;;5.97;;
4909;SDS011;2470;49.868;8.660;2022-11-18T05:33:20;10.60;;;6.13;;
4909;SDS011;2470;49.868;8.660;2022-11-18T05:35:45;11.13;;;6.30;;
4909;SDS011;2470;49.868;8.660;2022-11-18T05:38:11;15.37;;;7.13;;
4909;SDS011;2470;49.868;8.660;2022-11-18T05:40:36;12.50;;;6.87;;
4909;SDS011;2470;49.868;8.660;2022-11-18T05:43:02;7.27;;;5.97;;
4909;SDS011;2470;49.868;8.660;2022-11-18T05:45:37;8.83;;;6.13;;
4909;SDS011;2470;49.868;8.660;2022-11-18T05:48:03;12.07;;;8.93;;
4909;SDS011;2470;49.868;8.660;2022-11-18T05:50:31;10.00;;;6.63;;
4909;SDS011;2470;49.868;8.660;2022-11-18T05:52:57;9.83;;;6.50;;
4909;SDS011;2470;49.868;8.660;2022-11-18T05:55:24;13.90;;;6.63;;
4909;SDS011;2470;49.868;8.660;2022-11-18T05:57:53;12.30;;;7.33;;
4909;SDS011;2470;49.868;8.660;2022-11-18T06:00:19;10.60;;;6.13;;
4909;SDS011;2470;49.868;8.660;2022-11-18T06:02:45;12.53;;;7.50;;
4909;SDS011;2470;49.868;8.660;2022-11-18T06:05:13;9.47;;;6.37;;
4909;SDS011;2470;49.868;8.660;2022-11-18T06:07:42;20.17;;;7.50;;
4909;SDS011;2470;49.868;8.660;2022-11-18T06:10:10;12.23;;;6.30;;
4909;SDS011;2470;49.868;8.660;2022-11-18T06:12:47;9.33;;;6.40;;
4909;SDS011;2470;49.868;8.660;2022-11-18T06:15:16;13.23;;;6.60;;
4909;SDS011;2470;49.868;8.660;2022-11-18T06:18:04;10.10;;;7.53;;
4909;SDS011;2470;49.868;8.660;2022-11-18T06:20:42;11.90;;;6.90;;
4909;SDS011;2470;49.868;8.660;2022-11-18T06:23:09;15.90;;;7.70;;
4909;SDS011;2470;49.868;8.660;2022-11-18T06:25:36;15.87;;;7.20;;
4909;SDS011;2470;49.868;8.660;2022-11-18T06:28:03;13.63;;;7.00;;
4909;SDS011;2470;49.868;8.660;2022-11-18T06:30:29;11.50;;;6.43;;
4909;SDS011;2470;49.868;8.660;2022-11-18T06:32:55;8.50;;;5.97;;
4909;SDS011;2470;49.868;8.660;2022-11-18T06:35:20;14.73;;;7.63;;
4909;SDS011;2470;49.868;8.660;2022-11-18T06:37:46;11.90;;;7.17;;
4909;SDS011;2470;49.868;8.660;2022-11-18T06:40:12;20.57;;;8.50;;
4909;SDS011;2470;49.868;8.660;2022-11-18T06:42:37;17.40;;;8.50;;
4909;SDS011;2470;49.868;8.660;2022-11-18T06:45:21;10.67;;;6.57;;
4909;SDS011;2470;49.868;8.660;2022-11-18T06:47:47;13.60;;;7.63;;
4909;SDS011;2470;49.868;8.660;2022-11-18T06:50:12;10.70;;;6.17;;
4909;SDS011;2470;49.868;8.660;2022-11-18T06:52:38;12.00;;;7.30;;
4909;SDS011;2470;49.868;8.660;2022-11-18T06:55:04;6.37;;;4.50;;
4909;SDS011;2470;49.868;8.660;2022-11-18T06:57:32;8.83;;;5.47;;
4909;SDS011;2470;49.868;8.660;2022-11-18T06:59:58;9.60;;;5.40;;
4909;SDS011;2470;49.868;8.660;2022-11-18T07:02:23;7.20;;;4.13;;
4909;SDS011;2470;49.868;8.660;2022-11-18T07:04:49;8.93;;;5.07;;
4909;SDS011;2470;49.868;8.660;2022-11-18T07:07:14;5.63;;;3.80;;
4909;SDS011;2470;49.868;8.660;2022-11-18T07:09:40;7.50;;;3.60;;
4909;SDS011;2470;49.868;8.660;2022-11-18T07:12:06;5.90;;;3.23;;
4909;SDS011;2470;49.868;8.660;2022-11-18T07:14:31;6.90;;;3.77;;
4909;SDS011;2470;49.868;8.660;2022-11-18T07:16:57;5.60;;;3.40;;
4909;SDS011;2470;49.868;8.660;2022-11-18T07:19:22;3.87;;;2.93;;
4909;SDS011;2470;49.868;8.660;2022-11-18T07:21:48;4.63;;;2.93;;
4909;SDS011;2470;49.868;8.660;2022-11-18T07:24:14;3.10;;;2.27;;
4909;SDS011;2470;49.868;8.660;2022-11-18T07:26:40;5.00;;;3.03;;
4909;SDS011;2470;49.868;8.660;2022-11-18T07:29:06;5.03;;;2.67;;
4909;SDS011;2470;49.868;8.660;2022-11-18T07:31:32;6.20;;;3.60;;
4909;SDS011;2470;49.868;8.660;2022-11-18T07:34:01;5.80;;;2.73;;
4909;SDS011;2470;49.868;8.660;2022-11-18T07:36:27;2.73;;;2.27;;
4909;SDS011;2470;49.868;8.660;2022-11-18T07:38:53;4.83;;;3.00;;
4909;SDS011;2470;49.868;8.660;2022-11-18T07:41:21;2.63;;;2.43;;
4909;SDS011;2470;49.868;8.660;2022-11-18T07:43:50;4.87;;;3.17;;
4909;SDS011;2470;49.868;8.660;2022-11-18T07:48:51;5.13;;;2.37;;
4909;SDS011;2470;49.868;8.660;2022-11-18T07:51:19;6.53;;;2.33;;
4909;SDS011;2470;49.868;8.660;2022-11-18T07:53:47;5.50;;;3.37;;
4909;SDS011;2470;49.868;8.660;2022-11-18T07:56:13;4.80;;;3.00;;
4909;SDS011;2470;49.868;8.660;2022-11-18T07:58:39;3.60;;;2.90;;
4909;SDS011;2470;49.868;8.660;2022-11-18T08:01:15;2.70;;;1.73;;
4909;SDS011;2470;49.868;8.660;2022-11-18T08:03:42;2.83;;;1.70;;
4909;SDS011;2470;49.868;8.660;2022-11-18T08:06:08;3.37;;;2.30;;
4909;SDS011;2470;49.868;8.660;2022-11-18T08:08:36;6.77;;;2.40;;
4909;SDS011;2470;49.868;8.660;2022-11-18T08:11:03;5.27;;;2.87;;
4909;SDS011;2470;49.868;8.660;2022-11-18T08:13:30;3.13;;;1.87;;
4909;SDS011;2470;49.868;8.660;2022-11-18T08:15:56;1.57;;;1.43;;
4909;SDS011;2470;49.868;8.660;2022-11-18T08:18:22;2.73;;;1.70;;
4909;SDS011;2470;49.868;8.660;2022-11-18T08:20:48;2.50;;;1.53;;
4909;SDS011;2470;49.868;8.660;2022-11-18T08:23:14;1.80;;;1.40;;
4909;SDS011;2470;49.868;8.660;2022-11-18T08:25:41;4.57;;;2.07;;
4909;SDS011;2470;49.868;8.660;2022-11-18T08:28:08;2.77;;;2.17;;
4909;SDS011;2470;49.868;8.660;2022-11-18T08:30:34;3.07;;;1.97;;
4909;SDS011;2470;49.868;8.660;2022-11-18T08:33:01;1.70;;;1.60;;
4909;SDS011;2470;49.868;8.660;2022-11-18T08:35:27;3.03;;;2.07;;
4909;SDS011;2470;49.868;8.660;2022-11-18T08:37:54;2.43;;;2.23;;
4909;SDS011;2470;49.868;8.660;2022-11-18T08:40:19;6.10;;;2.33;;
4909;SDS011;2470;49.868;8.660;2022-11-18T08:42:45;7.70;;;2.23;;
4909;SDS011;2470;49.868;8.660;2022-11-18T08:45:11;3.70;;;2.10;;
4909;SDS011;2470;49.868;8.660;2022-11-18T08:47:36;3.90;;;2.03;;
4909;SDS011;2470;49.868;8.660;2022-11-18T08:50:03;4.20;;;2.47;;
4909;SDS011;2470;49.868;8.660;2022-11-18T08:52:30;1.73;;;1.63;;
4909;SDS011;2470;49.868;8.660;2022-11-18T08:54:55;4.43;;;1.47;;
4909;SDS011;2470;49.868;8.660;2022-11-18T08:57:21;1.80;;;1.60;;
4909;SDS011;2470;49.868;8.660;2022-11-18T08:59:47;1.70;;;1.60;;
4909;SDS011;2470;49.868;8.660;2022-11-18T09:02:13;1.50;;;1.40;;
4909;SDS011;2470;49.868;8.660;2022-11-18T09:04:40;4.07;;;2.30;;
4909;SDS011;2470;49.868;8.660;2022-11-18T09:07:05;1.40;;;1.30;;
4909;SDS011;2470;49.868;8.660;2022-11-18T09:09:31;1.50;;;1.40;;
4909;SDS011;2470;49.868;8.660;2022-11-18T09:11:57;2.10;;;1.60;;
4909;SDS011;2470;49.868;8.660;2022-11-18T09:14:22;1.63;;;1.50;;
4909;SDS011;2470;49.868;8.660;2022-11-18T09:16:48;5.87;;;2.13;;
4909;SDS011;2470;49.868;8.660;2022-11-18T09:19:14;1.70;;;1.60;;
4909;SDS011;2470;49.868;8.660;2022-11-18T09:21:40;1.70;;;1.60;;
4909;SDS011;2470;49.868;8.660;2022-11-18T09:24:06;2.43;;;1.90;;
4909;SDS011;2470;49.868;8.660;2022-11-18T09:26:32;3.17;;;2.10;;
4909;SDS011;2470;49.868;8.660;2022-11-18T09:28:58;1.77;;;1.67;;
4909;SDS011;2470;49.868;8.660;2022-11-18T09:31:24;5.03;;;2.57;;
4909;SDS011;2470;49.868;8.660;2022-11-18T09:33:49;5.77;;;2.17;;
4909;SDS011;2470;49.868;8.660;2022-11-18T09:36:16;2.50;;;1.80;;
4909;SDS011;2470;49.868;8.660;2022-11-18T09:38:44;1.67;;;1.50;;
4909;SDS011;2470;49.868;8.660;2022-11-18T09:44:00;2.37;;;2.10;;
4909;SDS011;2470;49.868;8.660;2022-11-18T09:49:15;3.77;;;3.07;;
4909;SDS011;2470;49.868;8.660;2022-11-18T09:51:54;2.07;;;1.87;;
4909;SDS011;2470;49.868;8.660;2022-11-18T09:54:25;3.90;;;2.50;;
4909;SDS011;2470;49.868;8.660;2022-11-18T09:56:54;2.90;;;2.70;;
4909;SDS011;2470;49.868;8.660;2022-11-18T09:59:24;5.80;;;2.07;;
4909;SDS011;2470;49.868;8.660;2022-11-18T10:01:53;2.20;;;2.00;;
4909;SDS011;2470;49.868;8.660;2022-11-18T10:04:22;2.37;;;2.00;;
4909;SDS011;2470;49.868;8.660;2022-11-18T10:06:48;3.57;;;2.37;;
4909;SDS011;2470;49.868;8.660;2022-11-18T10:09:21;2.90;;;2.13;;
4909;SDS011;2470;49.868;8.660;2022-11-18T10:12:20;3.17;;;1.93;;
4909;SDS011;2470;49.868;8.660;2022-11-18T10:20:07;3.27;;;2.23;;
4909;SDS011;2470;49.868;8.660;2022-11-18T10:22:40;3.57;;;2.50;;
4909;SDS011;2470;49.868;8.660;2022-11-18T10:25:25;2.63;;;2.40;;
4909;SDS011;2470;49.868;8.660;2022-11-18T10:27:51;3.53;;;2.10;;
4909;SDS011;2470;49.868;8.660;2022-11-18T10:30:20;10.23;;;2.63;;
4909;SDS011;2470;49.868;8.660;2022-11-18T10:32:52;8.50;;;2.60;;
4909;SDS011;2470;49.868;8.660;2022-11-18T10:35:28;3.27;;;2.40;;
4909;SDS011;2470;49.868;8.660;2022-11-18T10:38:20;2.63;;;2.23;;
4909;SDS011;2470;49.868;8.660;2022-11-18T10:40:46;3.90;;;2.50;;
4909;SDS011;2470;49.868;8.660;2022-11-18T10:43:42;3.03;;;2.73;;
4909;SDS011;2470;49.868;8.660;2022-11-18T10:46:28;3.33;;;2.73;;
4909;SDS011;2470;49.868;8.660;2022-11-18T10:51:33;3.80;;;2.80;;
4909;SDS011;2470;49.868;8.660;2022-11-18T10:54:07;5.33;;;2.30;;
4909;SDS011;2470;49.868;8.660;2022-11-18T10:56:45;10.33;;;3.03;;
4909;SDS011;2470;49.868;8.660;2022-11-18T11:00:02;4.10;;;2.70;;
4909;SDS011;2470;49.868;8.660;2022-11-18T11:04:56;5.63;;;3.07;;
4909;SDS011;2470;49.868;8.660;2022-11-18T11:07:32;3.93;;;2.73;;
4909;SDS011;2470;49.868;8.660;2022-11-18T11:12:32;3.73;;;3.10;;
4909;SDS011;2470;49.868;8.660;2022-11-18T11:15:05;3.50;;;2.83;;
4909;SDS011;2470;49.868;8.660;2022-11-18T11:17:36;4.30;;;3.03;;
4909;SDS011;2470;49.868;8.660;2022-11-18T11:22:41;8.57;;;3.07;;
4909;SDS011;2470;49.868;8.660;2022-11-18T11:27:56;3.10;;;2.57;;
4909;SDS011;2470;49.868;8.660;2022-11-18T11:30:34;3.30;;;2.77;;
4909;SDS011;2470;49.868;8.660;2022-11-18T11:33:09;5.50;;;4.10;;
4909;SDS011;2470;49.868;8.660;2022-11-18T11:41:21;8.13;;;3.13;;
4909;SDS011;2470;49.868;8.660;2022-11-18T11:46:53;3.57;;;2.30;;
4909;SDS011;2470;49.868;8.660;2022-11-18T12:03:58;3.93;;;3.23;;
4909;SDS011;2470;49.868;8.660;2022-11-18T12:06:49;3.97;;;2.87;;
4909;SDS011;2470;49.868;8.660;2022-11-18T12:09:20;4.30;;;2.70;;
4909;SDS011;2470;49.868;8.660;2022-11-18T12:17:06;5.47;;;2.80;;
4909;SDS011;2470;49.868;8.660;2022-11-18T12:19:43;3.10;;;2.60;;
4909;SDS011;2470;49.868;8.660;2022-11-18T12:22:08;8.50;;;2.63;;
4909;SDS011;2470;49.868;8.660;2022-11-18T12:24:38;3.17;;;2.70;;
4909;SDS011;2470;49.868;8.660;2022-11-18T12:32:25;2.67;;;2.20;;
4909;SDS011;2470;49.868;8.660;2022-11-18T12:37:45;8.40;;;3.43;;
4909;SDS011;2470;49.868;8.660;2022-11-18T12:46:08;3.03;;;2.23;;
4909;SDS011;2470;49.868;8.660;2022-11-18T12:48:54;5.30;;;3.30;;
4909;SDS011;2470;49.868;8.660;2022-11-18T12:53:49;2.80;;;2.47;;
4909;SDS011;2470;49.868;8.660;2022-11-18T12:58:44;3.17;;;2.67;;
4909;SDS011;2470;49.868;8.660;2022-11-18T13:01:16;3.80;;;2.90;;
4909;SDS011;2470;49.868;8.660;2022-11-18T13:03:43;4.47;;;2.40;;
4909;SDS011;2470;49.868;8.660;2022-11-18T13:06:18;3.80;;;2.87;;
4909;SDS011;2470;49.868;8.660;2022-11-18T13:08:59;5.63;;;2.57;;
4909;SDS011;2470;49.868;8.660;2022-11-18T13:11:27;4.47;;;2.50;;
4909;SDS011;2470;49.868;8.660;2022-11-18T13:14:13;4.90;;;2.28;;
4909;SDS011;2470;49.868;8.660;2022-11-18T13:16:58;3.55;;;2.42;;
4909;SDS011;2470;49.868;8.660;2022-11-18T13:19:42;2.83;;;2.30;;
4909;SDS011;2470;49.868;8.660;2022-11-18T13:22:19;3.78;;;2.20;;
4909;SDS011;2470;49.868;8.660;2022-11-18T13:25:04;3.42;;;2.00;;
4909;SDS011;2470;49.868;8.660;2022-11-18T13:27:34;3.03;;;1.83;;
4909;SDS011;2470;49.868;8.660;2022-11-18T13:30:09;2.80;;;1.58;;
4909;SDS011;2470;49.868;8.660;2022-11-18T13:32:44;2.00;;;1.80;;
4909;SDS011;2470;49.868;8.660;2022-11-18T13:35:15;3.00;;;1.98;;
4909;SDS011;2470;49.868;8.660;2022-11-18T13:37:51;8.48;;;2.00;;
4909;SDS011;2470;49.868;8.660;2022-11-18T13:40:23;2.95;;;1.65;;
4909;SDS011;2470;49.868;8.660;2022-11-18T13:42:49;1.80;;;1.70;;
4909;SDS011;2470;49.868;8.660;2022-11-18T13:45:15;1.90;;;1.75;;
4909;SDS011;2470;49.868;8.660;2022-11-18T13:50:35;2.95;;;1.77;;
4909;SDS011;2470;49.868;8.660;2022-11-18T14:01:38;2.00;;;1.80;;
4909;SDS011;2470;49.868;8.660;2022-11-18T14:04:06;3.53;;;1.73;;
4909;SDS011;2470;49.868;8.660;2022-11-18T14:06:42;3.17;;;1.98;;
4909;SDS011;2470;49.868;8.660;2022-11-18T14:09:50;1.70;;;1.50;;
4909;SDS011;2470;49.868;8.660;2022-11-18T14:14:31;4.53;;;2.10;;
4909;SDS011;2470;49.868;8.660;2022-11-18T14:17:11;1.63;;;1.53;;
4909;SDS011;2470;49.868;8.660;2022-11-18T14:19:41;2.03;;;1.30;;
4909;SDS011;2470;49.868;8.660;2022-11-18T14:24:58;4.90;;;1.67;;
4909;SDS011;2470;49.868;8.660;2022-11-18T14:27:37;7.20;;;1.43;;
4909;SDS011;2470;49.868;8.660;2022-11-18T14:30:26;2.40;;;1.30;;
4909;SDS011;2470;49.868;8.660;2022-11-18T14:35:34;2.37;;;1.17;;
4909;SDS011;2470;49.868;8.660;2022-11-18T14:38:00;6.30;;;1.23;;
4909;SDS011;2470;49.868;8.660;2022-11-18T14:40:28;3.83;;;1.37;;
4909;SDS011;2470;49.868;8.660;2022-11-18T14:42:53;3.63;;;1.70;;
4909;SDS011;2470;49.868;8.660;2022-11-18T14:45:19;3.10;;;1.27;;
4909;SDS011;2470;49.868;8.660;2022-11-18T14:47:44;2.80;;;1.47;;
4909;SDS011;2470;49.868;8.660;2022-11-18T14:50:11;1.10;;;1.00;;
4909;SDS011;2470;49.868;8.660;2022-11-18T14:52:37;2.40;;;1.20;;
4909;SDS011;2470;49.868;8.660;2022-11-18T14:55:03;1.07;;;0.97;;
4909;SDS011;2470;49.868;8.660;2022-11-18T14:57:28;2.97;;;1.27;;
4909;SDS011;2470;49.868;8.660;2022-11-18T14:59:54;3.93;;;1.93;;
4909;SDS011;2470;49.868;8.660;2022-11-18T15:02:19;1.90;;;1.60;;
4909;SDS011;2470;49.868;8.660;2022-11-18T15:04:45;1.20;;;1.10;;
4909;SDS011;2470;49.868;8.660;2022-11-18T15:07:12;3.70;;;1.87;;
4909;SDS011;2470;49.868;8.660;2022-11-18T15:09:39;2.73;;;1.97;;
4909;SDS011;2470;49.868;8.660;2022-11-18T15:12:05;2.03;;;1.17;;
4909;SDS011;2470;49.868;8.660;2022-11-18T15:14:31;2.93;;;1.57;;
4909;SDS011;2470;49.868;8.660;2022-11-18T15:16:56;1.77;;;1.23;;
4909;SDS011;2470;49.868;8.660;2022-11-18T15:19:22;4.20;;;2.27;;
4909;SDS011;2470;49.868;8.660;2022-11-18T15:21:47;4.17;;;2.10;;
4909;SDS011;2470;49.868;8.660;2022-11-18T15:24:13;4.53;;;2.60;;
4909;SDS011;2470;49.868;8.660;2022-11-18T15:26:40;5.10;;;1.80;;
4909;SDS011;2470;49.868;8.660;2022-11-18T15:29:10;1.93;;;1.60;;
4909;SDS011;2470;49.868;8.660;2022-11-18T15:31:46;1.67;;;1.50;;
4909;SDS011;2470;49.868;8.660;2022-11-18T15:34:12;4.10;;;1.80;;
4909;SDS011;2470;49.868;8.660;2022-11-18T15:36:39;6.43;;;2.20;;
4909;SDS011;2470;49.868;8.660;2022-11-18T15:39:04;2.87;;;2.10;;
4909;SDS011;2470;49.868;8.660;2022-11-18T15:41:30;2.80;;;2.00;;
4909;SDS011;2470;49.868;8.660;2022-11-18T15:43:57;4.60;;;1.97;;
4909;SDS011;2470;49.868;8.660;2022-11-18T15:46:25;7.60;;;1.90;;
4909;SDS011;2470;49.868;8.660;2022-11-18T15:48:52;2.83;;;1.73;;
4909;SDS011;2470;49.868;8.660;2022-11-18T15:51:19;1.63;;;1.53;;
4909;SDS011;2470;49.868;8.660;2022-11-18T15:53:45;6.20;;;3.40;;
4909;SDS011;2470;49.868;8.660;2022-11-18T15:58:51;4.70;;;2.47;;
4909;SDS011;2470;49.868;8.660;2022-11-18T16:01:18;4.10;;;2.73;;
4909;SDS011;2470;49.868;8.660;2022-11-18T16:03:44;7.47;;;3.00;;
4909;SDS011;2470;49.868;8.660;2022-11-18T16:06:10;13.07;;;4.60;;
4909;SDS011;2470;49.868;8.660;2022-11-18T16:08:35;3.20;;;2.30;;
4909;SDS011;2470;49.868;8.660;2022-11-18T16:11:01;6.50;;;2.50;;
4909;SDS011;2470;49.868;8.660;2022-11-18T16:13:45;5.20;;;2.33;;
4909;SDS011;2470;49.868;8.660;2022-11-18T16:16:17;7.17;;;2.40;;
4909;SDS011;2470;49.868;8.660;2022-11-18T16:18:44;3.50;;;2.40;;
4909;SDS011;2470;49.868;8.660;2022-11-18T16:21:12;2.50;;;2.07;;
4909;SDS011;2470;49.868;8.660;2022-11-18T16:23:38;5.50;;;2.53;;
4909;SDS011;2470;49.868;8.660;2022-11-18T16:26:03;5.83;;;2.40;;
4909;SDS011;2470;49.868;8.660;2022-11-18T16:28:29;5.23;;;3.53;;
4909;SDS011;2470;49.868;8.660;2022-11-18T16:30:55;5.23;;;3.37;;
4909;SDS011;2470;49.868;8.660;2022-11-18T16:33:39;6.37;;;2.80;;
4909;SDS011;2470;49.868;8.660;2022-11-18T16:36:05;5.53;;;3.20;;
4909;SDS011;2470;49.868;8.660;2022-11-18T16:38:31;4.50;;;3.27;;
4909;SDS011;2470;49.868;8.660;2022-11-18T16:40:57;4.03;;;2.33;;
4909;SDS011;2470;49.868;8.660;2022-11-18T16:43:23;12.10;;;4.57;;
4909;SDS011;2470;49.868;8.660;2022-11-18T16:45:53;6.07;;;3.70;;
4909;SDS011;2470;49.868;8.660;2022-11-18T16:48:19;4.60;;;2.90;;
4909;SDS011;2470;49.868;8.660;2022-11-18T16:51:00;5.83;;;2.20;;
4909;SDS011;2470;49.868;8.660;2022-11-18T16:53:41;5.30;;;2.70;;
4909;SDS011;2470;49.868;8.660;2022-11-18T16:56:07;5.20;;;2.10;;
4909;SDS011;2470;49.868;8.660;2022-11-18T16:58:32;5.10;;;3.57;;
4909;SDS011;2470;49.868;8.660;2022-11-18T17:00:58;7.33;;;2.90;;
4909;SDS011;2470;49.868;8.660;2022-11-18T17:03:23;4.20;;;2.97;;
4909;SDS011;2470;49.868;8.660;2022-11-18T17:05:49;8.53;;;2.67;;
4909;SDS011;2470;49.868;8.660;2022-11-18T17:08:14;2.93;;;2.53;;
4909;SDS011;2470;49.868;8.660;2022-11-18T17:10:40;2.87;;;2.20;;
4909;SDS011;2470;49.868;8.660;2022-11-18T17:13:05;2.97;;;2.40;;
4909;SDS011;2470;49.868;8.660;2022-11-18T17:15:33;3.63;;;2.07;;
4909;SDS011;2470;49.868;8.660;2022-11-18T17:17:59;5.40;;;2.30;;
4909;SDS011;2470;49.868;8.660;2022-11-18T17:20:25;2.57;;;2.13;;